sensor_id;sensor_type;location;lat;lon;timestamp;temperature;humidity
42885;DHT22;28534;48.100;11.584;2023-09-07T00:00:47;25.00;60.10
42885;DHT22;28534;48.100;11.584;2023-09-07T00:01:48;25.00;60.10
42885;DHT22;28534;48.100;11.584;2023-09-07T00:02:52;25.00;60.10
42885;DHT22;28534;48.100;11.584;2023-09-07T00:03:53;25.00;60.10
42885;DHT22;28534;48.100;11.584;2023-09-07T00:04:56;25.00;60.10
42885;DHT22;28534;48.100;11.584;2023-09-07T00:05:58;25.00;60.10
42885;DHT22;28534;48.100;11.584;2023-09-07T00:06:59;25.00;60.20
42885;DHT22;28534;48.100;11.584;2023-09-07T00:08:00;25.00;60.10
42885;DHT22;28534;48.100;11.584;2023-09-07T00:09:01;25.00;60.20
42885;DHT22;28534;48.100;11.584;2023-09-07T00:10:02;25.00;60.20
42885;DHT22;28534;48.100;11.584;2023-09-07T00:11:05;25.00;60.10
42885;DHT22;28534;48.100;11.584;2023-09-07T00:12:06;25.00;60.10
42885;DHT22;28534;48.100;11.584;2023-09-07T00:13:07;25.00;60.20
42885;DHT22;28534;48.100;11.584;2023-09-07T00:14:08;25.00;60.20
42885;DHT22;28534;48.100;11.584;2023-09-07T00:15:10;25.00;60.10
42885;DHT22;28534;48.100;11.584;2023-09-07T00:16:11;25.00;60.20
42885;DHT22;28534;48.100;11.584;2023-09-07T00:17:12;25.00;60.10
42885;DHT22;28534;48.100;11.584;2023-09-07T00:18:13;25.00;60.10
42885;DHT22;28534;48.100;11.584;2023-09-07T00:19:15;25.00;60.10
42885;DHT22;28534;48.100;11.584;2023-09-07T00:20:17;25.00;60.10
42885;DHT22;28534;48.100;11.584;2023-09-07T00:21:19;25.00;60.10
42885;DHT22;28534;48.100;11.584;2023-09-07T00:22:20;25.00;60.10
42885;DHT22;28534;48.100;11.584;2023-09-07T00:23:20;25.00;60.10
42885;DHT22;28534;48.100;11.584;2023-09-07T00:24:22;25.00;60.20
42885;DHT22;28534;48.100;11.584;2023-09-07T00:25:23;25.00;60.20
42885;DHT22;28534;48.100;11.584;2023-09-07T00:26:25;25.00;60.20
42885;DHT22;28534;48.100;11.584;2023-09-07T00:27:26;25.00;60.10
42885;DHT22;28534;48.100;11.584;2023-09-07T00:28:27;25.00;60.10
42885;DHT22;28534;48.100;11.584;2023-09-07T00:29:28;25.00;60.20
42885;DHT22;28534;48.100;11.584;2023-09-07T00:30:29;24.90;60.10
42885;DHT22;28534;48.100;11.584;2023-09-07T00:31:30;25.00;60.10
42885;DHT22;28534;48.100;11.584;2023-09-07T00:32:31;25.00;61.00
42885;DHT22;28534;48.100;11.584;2023-09-07T00:33:33;25.00;60.10
42885;DHT22;28534;48.100;11.584;2023-09-07T00:34:34;25.00;60.10
42885;DHT22;28534;48.100;11.584;2023-09-07T00:35:36;25.00;60.10
42885;DHT22;28534;48.100;11.584;2023-09-07T00:36:37;25.00;60.20
42885;DHT22;28534;48.100;11.584;2023-09-07T00:37:39;25.00;60.20
42885;DHT22;28534;48.100;11.584;2023-09-07T00:38:39;24.90;60.10
42885;DHT22;28534;48.100;11.584;2023-09-07T00:39:41;25.00;60.20
42885;DHT22;28534;48.100;11.584;2023-09-07T00:40:42;25.00;60.10
42885;DHT22;28534;48.100;11.584;2023-09-07T00:41:43;25.00;60.10
42885;DHT22;28534;48.100;11.584;2023-09-07T00:42:44;25.00;60.10
42885;DHT22;28534;48.100;11.584;2023-09-07T00:43:45;25.00;60.20
42885;DHT22;28534;48.100;11.584;2023-09-07T00:44:47;25.00;60.20
42885;DHT22;28534;48.100;11.584;2023-09-07T00:45:48;25.00;60.20
42885;DHT22;28534;48.100;11.584;2023-09-07T00:46:50;25.00;60.30
42885;DHT22;28534;48.100;11.584;2023-09-07T00:47:51;25.00;60.20
42885;DHT22;28534;48.100;11.584;2023-09-07T00:48:52;25.00;60.20
42885;DHT22;28534;48.100;11.584;2023-09-07T00:49:53;25.00;60.20
42885;DHT22;28534;48.100;11.584;2023-09-07T00:50:56;25.00;60.20
42885;DHT22;28534;48.100;11.584;2023-09-07T00:51:57;25.00;60.20
42885;DHT22;28534;48.100;11.584;2023-09-07T00:52:58;25.00;60.30
42885;DHT22;28534;48.100;11.584;2023-09-07T00:54:00;25.00;60.20
42885;DHT22;28534;48.100;11.584;2023-09-07T00:55:01;25.00;60.20
42885;DHT22;28534;48.100;11.584;2023-09-07T00:56:04;25.00;60.20
42885;DHT22;28534;48.100;11.584;2023-09-07T00:57:05;25.00;60.20
42885;DHT22;28534;48.100;11.584;2023-09-07T00:58:07;25.00;60.20
42885;DHT22;28534;48.100;11.584;2023-09-07T00:59:08;24.90;60.20
42885;DHT22;28534;48.100;11.584;2023-09-07T01:00:10;25.00;60.20
42885;DHT22;28534;48.100;11.584;2023-09-07T01:01:11;25.00;60.20
42885;DHT22;28534;48.100;11.584;2023-09-07T01:02:12;25.00;60.20
42885;DHT22;28534;48.100;11.584;2023-09-07T01:03:13;25.00;60.20
42885;DHT22;28534;48.100;11.584;2023-09-07T01:04:14;25.00;60.20
42885;DHT22;28534;48.100;11.584;2023-09-07T01:05:15;25.00;60.20
42885;DHT22;28534;48.100;11.584;2023-09-07T01:06:17;25.00;60.20
42885;DHT22;28534;48.100;11.584;2023-09-07T01:07:24;25.00;60.20
42885;DHT22;28534;48.100;11.584;2023-09-07T01:08:25;25.00;60.20
42885;DHT22;28534;48.100;11.584;2023-09-07T01:09:28;25.00;60.20
42885;DHT22;28534;48.100;11.584;2023-09-07T01:10:30;24.90;60.20
42885;DHT22;28534;48.100;11.584;2023-09-07T01:11:35;25.00;60.20
42885;DHT22;28534;48.100;11.584;2023-09-07T01:12:36;25.00;60.30
42885;DHT22;28534;48.100;11.584;2023-09-07T01:13:37;24.90;60.20
42885;DHT22;28534;48.100;11.584;2023-09-07T01:14:38;25.00;60.30
42885;DHT22;28534;48.100;11.584;2023-09-07T01:15:39;25.00;60.20
42885;DHT22;28534;48.100;11.584;2023-09-07T01:16:40;25.00;60.30
42885;DHT22;28534;48.100;11.584;2023-09-07T01:17:42;25.00;60.20
42885;DHT22;28534;48.100;11.584;2023-09-07T01:18:43;24.90;60.20
42885;DHT22;28534;48.100;11.584;2023-09-07T01:19:46;24.90;60.20
42885;DHT22;28534;48.100;11.584;2023-09-07T01:20:47;24.90;60.20
42885;DHT22;28534;48.100;11.584;2023-09-07T01:21:51;24.90;60.20
42885;DHT22;28534;48.100;11.584;2023-09-07T01:22:51;24.90;60.20
42885;DHT22;28534;48.100;11.584;2023-09-07T01:23:53;24.90;60.30
42885;DHT22;28534;48.100;11.584;2023-09-07T01:24:55;24.90;60.30
42885;DHT22;28534;48.100;11.584;2023-09-07T01:25:56;24.90;60.30
42885;DHT22;28534;48.100;11.584;2023-09-07T01:26:58;25.00;60.30
42885;DHT22;28534;48.100;11.584;2023-09-07T01:27:59;25.00;61.10
42885;DHT22;28534;48.100;11.584;2023-09-07T01:29:00;25.00;60.30
42885;DHT22;28534;48.100;11.584;2023-09-07T01:30:01;25.00;60.20
42885;DHT22;28534;48.100;11.584;2023-09-07T01:31:04;25.00;60.30
42885;DHT22;28534;48.100;11.584;2023-09-07T01:32:05;24.90;60.20
42885;DHT22;28534;48.100;11.584;2023-09-07T01:33:06;24.90;60.30
42885;DHT22;28534;48.100;11.584;2023-09-07T01:34:09;25.00;60.40
42885;DHT22;28534;48.100;11.584;2023-09-07T01:35:10;24.90;60.30
42885;DHT22;28534;48.100;11.584;2023-09-07T01:36:11;24.90;60.30
42885;DHT22;28534;48.100;11.584;2023-09-07T01:37:14;25.00;60.40
42885;DHT22;28534;48.100;11.584;2023-09-07T01:38:15;24.90;60.20
42885;DHT22;28534;48.100;11.584;2023-09-07T01:39:15;24.80;60.20
42885;DHT22;28534;48.100;11.584;2023-09-07T01:40:18;24.90;60.30
42885;DHT22;28534;48.100;11.584;2023-09-07T01:41:18;25.00;60.40
42885;DHT22;28534;48.100;11.584;2023-09-07T01:42:20;24.90;60.20
42885;DHT22;28534;48.100;11.584;2023-09-07T01:43:22;24.90;60.20
42885;DHT22;28534;48.100;11.584;2023-09-07T01:44:23;24.90;60.40
42885;DHT22;28534;48.100;11.584;2023-09-07T01:45:24;25.00;60.40
42885;DHT22;28534;48.100;11.584;2023-09-07T01:46:25;24.90;60.20
42885;DHT22;28534;48.100;11.584;2023-09-07T01:47:26;24.90;60.30
42885;DHT22;28534;48.100;11.584;2023-09-07T01:48:28;24.90;60.30
42885;DHT22;28534;48.100;11.584;2023-09-07T01:49:28;24.90;60.30
42885;DHT22;28534;48.100;11.584;2023-09-07T01:50:30;24.90;60.30
42885;DHT22;28534;48.100;11.584;2023-09-07T01:51:31;24.90;60.30
42885;DHT22;28534;48.100;11.584;2023-09-07T01:52:33;24.90;60.30
42885;DHT22;28534;48.100;11.584;2023-09-07T01:53:34;24.90;60.40
42885;DHT22;28534;48.100;11.584;2023-09-07T01:54:36;24.90;60.40
42885;DHT22;28534;48.100;11.584;2023-09-07T01:55:36;24.90;60.30
42885;DHT22;28534;48.100;11.584;2023-09-07T01:56:37;24.90;60.30
42885;DHT22;28534;48.100;11.584;2023-09-07T01:57:39;24.90;60.30
42885;DHT22;28534;48.100;11.584;2023-09-07T01:58:40;24.90;60.20
42885;DHT22;28534;48.100;11.584;2023-09-07T01:59:41;24.90;60.30
42885;DHT22;28534;48.100;11.584;2023-09-07T02:00:42;24.90;60.30
42885;DHT22;28534;48.100;11.584;2023-09-07T02:01:42;24.90;60.30
42885;DHT22;28534;48.100;11.584;2023-09-07T02:02:44;24.90;60.30
42885;DHT22;28534;48.100;11.584;2023-09-07T02:03:45;24.90;60.30
42885;DHT22;28534;48.100;11.584;2023-09-07T02:04:46;24.90;60.30
42885;DHT22;28534;48.100;11.584;2023-09-07T02:05:47;24.90;60.30
42885;DHT22;28534;48.100;11.584;2023-09-07T02:06:48;24.90;60.30
42885;DHT22;28534;48.100;11.584;2023-09-07T02:07:50;24.90;60.30
42885;DHT22;28534;48.100;11.584;2023-09-07T02:08:52;24.90;60.30
42885;DHT22;28534;48.100;11.584;2023-09-07T02:09:52;24.90;60.30
42885;DHT22;28534;48.100;11.584;2023-09-07T02:10:53;24.90;60.40
42885;DHT22;28534;48.100;11.584;2023-09-07T02:11:56;24.90;60.40
42885;DHT22;28534;48.100;11.584;2023-09-07T02:12:57;24.90;60.40
42885;DHT22;28534;48.100;11.584;2023-09-07T02:13:58;24.90;60.40
42885;DHT22;28534;48.100;11.584;2023-09-07T02:15:00;24.80;60.40
42885;DHT22;28534;48.100;11.584;2023-09-07T02:16:03;24.90;60.40
42885;DHT22;28534;48.100;11.584;2023-09-07T02:17:03;24.90;60.40
42885;DHT22;28534;48.100;11.584;2023-09-07T02:18:05;24.90;60.40
42885;DHT22;28534;48.100;11.584;2023-09-07T02:19:06;24.90;60.70
42885;DHT22;28534;48.100;11.584;2023-09-07T02:20:08;24.90;60.40
42885;DHT22;28534;48.100;11.584;2023-09-07T02:21:10;24.90;60.40
42885;DHT22;28534;48.100;11.584;2023-09-07T02:22:12;24.90;60.40
42885;DHT22;28534;48.100;11.584;2023-09-07T02:23:14;24.90;60.40
42885;DHT22;28534;48.100;11.584;2023-09-07T02:24:16;24.90;60.40
42885;DHT22;28534;48.100;11.584;2023-09-07T02:25:16;24.90;60.40
42885;DHT22;28534;48.100;11.584;2023-09-07T02:26:18;24.90;60.40
42885;DHT22;28534;48.100;11.584;2023-09-07T02:27:18;24.90;60.40
42885;DHT22;28534;48.100;11.584;2023-09-07T02:28:19;24.90;60.40
42885;DHT22;28534;48.100;11.584;2023-09-07T02:29:21;24.90;60.40
42885;DHT22;28534;48.100;11.584;2023-09-07T02:30:21;25.00;60.40
42885;DHT22;28534;48.100;11.584;2023-09-07T02:31:23;24.90;60.40
42885;DHT22;28534;48.100;11.584;2023-09-07T02:32:24;24.90;60.40
42885;DHT22;28534;48.100;11.584;2023-09-07T02:33:25;24.90;60.40
42885;DHT22;28534;48.100;11.584;2023-09-07T02:34:26;24.90;60.40
42885;DHT22;28534;48.100;11.584;2023-09-07T02:35:27;24.90;60.40
42885;DHT22;28534;48.100;11.584;2023-09-07T02:36:28;24.90;60.40
42885;DHT22;28534;48.100;11.584;2023-09-07T02:37:30;24.90;60.40
42885;DHT22;28534;48.100;11.584;2023-09-07T02:38:32;24.90;60.40
42885;DHT22;28534;48.100;11.584;2023-09-07T02:39:33;24.90;60.50
42885;DHT22;28534;48.100;11.584;2023-09-07T02:40:39;24.90;60.50
42885;DHT22;28534;48.100;11.584;2023-09-07T02:41:41;24.90;60.50
42885;DHT22;28534;48.100;11.584;2023-09-07T02:42:41;24.80;60.40
42885;DHT22;28534;48.100;11.584;2023-09-07T02:43:43;24.80;60.40
42885;DHT22;28534;48.100;11.584;2023-09-07T02:44:44;24.90;60.50
42885;DHT22;28534;48.100;11.584;2023-09-07T02:45:44;24.90;60.50
42885;DHT22;28534;48.100;11.584;2023-09-07T02:46:46;24.90;60.50
42885;DHT22;28534;48.100;11.584;2023-09-07T02:47:47;24.80;60.40
42885;DHT22;28534;48.100;11.584;2023-09-07T02:48:51;24.90;60.50
42885;DHT22;28534;48.100;11.584;2023-09-07T02:49:51;24.80;60.40
42885;DHT22;28534;48.100;11.584;2023-09-07T02:50:53;24.90;60.50
42885;DHT22;28534;48.100;11.584;2023-09-07T02:51:54;24.80;60.40
42885;DHT22;28534;48.100;11.584;2023-09-07T02:52:55;24.90;60.50
42885;DHT22;28534;48.100;11.584;2023-09-07T02:53:57;24.90;60.50
42885;DHT22;28534;48.100;11.584;2023-09-07T02:54:59;24.80;60.40
42885;DHT22;28534;48.100;11.584;2023-09-07T02:56:00;24.90;60.50
42885;DHT22;28534;48.100;11.584;2023-09-07T02:57:04;24.80;61.30
42885;DHT22;28534;48.100;11.584;2023-09-07T02:58:05;24.90;60.50
42885;DHT22;28534;48.100;11.584;2023-09-07T02:59:06;24.80;60.30
42885;DHT22;28534;48.100;11.584;2023-09-07T03:00:07;24.90;60.40
42885;DHT22;28534;48.100;11.584;2023-09-07T03:01:10;24.90;60.50
42885;DHT22;28534;48.100;11.584;2023-09-07T03:02:11;24.90;60.50
42885;DHT22;28534;48.100;11.584;2023-09-07T03:03:13;24.90;60.40
42885;DHT22;28534;48.100;11.584;2023-09-07T03:04:14;24.80;60.40
42885;DHT22;28534;48.100;11.584;2023-09-07T03:05:15;24.90;60.50
42885;DHT22;28534;48.100;11.584;2023-09-07T03:06:16;24.90;60.50
42885;DHT22;28534;48.100;11.584;2023-09-07T03:07:18;24.90;60.50
42885;DHT22;28534;48.100;11.584;2023-09-07T03:08:19;24.90;60.50
42885;DHT22;28534;48.100;11.584;2023-09-07T03:09:22;24.90;60.50
42885;DHT22;28534;48.100;11.584;2023-09-07T03:10:23;24.90;60.50
42885;DHT22;28534;48.100;11.584;2023-09-07T03:11:25;24.80;60.40
42885;DHT22;28534;48.100;11.584;2023-09-07T03:12:26;24.90;60.50
42885;DHT22;28534;48.100;11.584;2023-09-07T03:13:28;24.80;60.50
42885;DHT22;28534;48.100;11.584;2023-09-07T03:14:28;24.90;60.50
42885;DHT22;28534;48.100;11.584;2023-09-07T03:15:30;24.90;60.50
42885;DHT22;28534;48.100;11.584;2023-09-07T03:16:31;24.90;60.50
42885;DHT22;28534;48.100;11.584;2023-09-07T03:17:32;24.80;60.50
42885;DHT22;28534;48.100;11.584;2023-09-07T03:18:34;24.90;60.50
42885;DHT22;28534;48.100;11.584;2023-09-07T03:19:35;24.80;60.50
42885;DHT22;28534;48.100;11.584;2023-09-07T03:20:36;24.80;60.50
42885;DHT22;28534;48.100;11.584;2023-09-07T03:21:38;24.80;60.50
42885;DHT22;28534;48.100;11.584;2023-09-07T03:22:40;24.90;60.50
42885;DHT22;28534;48.100;11.584;2023-09-07T03:23:41;24.90;60.50
42885;DHT22;28534;48.100;11.584;2023-09-07T03:24:46;24.90;60.50
42885;DHT22;28534;48.100;11.584;2023-09-07T03:25:47;24.80;60.40
42885;DHT22;28534;48.100;11.584;2023-09-07T03:26:48;24.90;60.50
42885;DHT22;28534;48.100;11.584;2023-09-07T03:27:49;24.90;60.50
42885;DHT22;28534;48.100;11.584;2023-09-07T03:28:50;24.90;60.50
42885;DHT22;28534;48.100;11.584;2023-09-07T03:29:52;24.80;60.50
42885;DHT22;28534;48.100;11.584;2023-09-07T03:30:53;24.90;60.50
42885;DHT22;28534;48.100;11.584;2023-09-07T03:31:54;24.80;60.50
42885;DHT22;28534;48.100;11.584;2023-09-07T03:32:55;24.80;60.50
42885;DHT22;28534;48.100;11.584;2023-09-07T03:33:57;24.90;60.50
42885;DHT22;28534;48.100;11.584;2023-09-07T03:34:57;24.80;60.50
42885;DHT22;28534;48.100;11.584;2023-09-07T03:35:59;24.80;60.50
42885;DHT22;28534;48.100;11.584;2023-09-07T03:36:59;24.90;60.60
42885;DHT22;28534;48.100;11.584;2023-09-07T03:38:01;24.90;60.60
42885;DHT22;28534;48.100;11.584;2023-09-07T03:39:02;24.80;60.50
42885;DHT22;28534;48.100;11.584;2023-09-07T03:40:05;24.80;60.60
42885;DHT22;28534;48.100;11.584;2023-09-07T03:41:06;24.80;60.50
42885;DHT22;28534;48.100;11.584;2023-09-07T03:42:07;24.90;60.60
42885;DHT22;28534;48.100;11.584;2023-09-07T03:43:08;24.80;60.50
42885;DHT22;28534;48.100;11.584;2023-09-07T03:44:09;24.80;60.50
42885;DHT22;28534;48.100;11.584;2023-09-07T03:45:10;24.80;60.50
42885;DHT22;28534;48.100;11.584;2023-09-07T03:46:11;24.80;60.50
42885;DHT22;28534;48.100;11.584;2023-09-07T03:47:13;24.80;60.50
42885;DHT22;28534;48.100;11.584;2023-09-07T03:48:15;24.80;60.50
42885;DHT22;28534;48.100;11.584;2023-09-07T03:49:16;24.80;60.50
42885;DHT22;28534;48.100;11.584;2023-09-07T03:50:17;24.80;60.60
42885;DHT22;28534;48.100;11.584;2023-09-07T03:51:18;24.80;60.60
42885;DHT22;28534;48.100;11.584;2023-09-07T03:52:20;24.80;60.60
42885;DHT22;28534;48.100;11.584;2023-09-07T03:53:22;24.80;60.60
42885;DHT22;28534;48.100;11.584;2023-09-07T03:54:23;24.80;60.60
42885;DHT22;28534;48.100;11.584;2023-09-07T03:55:26;24.80;60.60
42885;DHT22;28534;48.100;11.584;2023-09-07T03:56:27;24.80;60.60
42885;DHT22;28534;48.100;11.584;2023-09-07T03:57:28;24.80;60.70
42885;DHT22;28534;48.100;11.584;2023-09-07T03:58:30;24.80;60.70
42885;DHT22;28534;48.100;11.584;2023-09-07T03:59:31;24.70;60.50
42885;DHT22;28534;48.100;11.584;2023-09-07T04:00:32;24.80;60.70
42885;DHT22;28534;48.100;11.584;2023-09-07T04:01:33;24.80;60.70
42885;DHT22;28534;48.100;11.584;2023-09-07T04:02:34;24.80;60.70
42885;DHT22;28534;48.100;11.584;2023-09-07T04:03:35;24.80;60.70
42885;DHT22;28534;48.100;11.584;2023-09-07T04:04:37;24.80;60.70
42885;DHT22;28534;48.100;11.584;2023-09-07T04:05:37;24.80;60.70
42885;DHT22;28534;48.100;11.584;2023-09-07T04:06:39;24.80;60.60
42885;DHT22;28534;48.100;11.584;2023-09-07T04:07:39;24.80;60.70
42885;DHT22;28534;48.100;11.584;2023-09-07T04:08:41;24.80;60.70
42885;DHT22;28534;48.100;11.584;2023-09-07T04:09:42;24.80;60.70
42885;DHT22;28534;48.100;11.584;2023-09-07T04:10:45;24.80;60.60
42885;DHT22;28534;48.100;11.584;2023-09-07T04:11:45;24.80;60.70
42885;DHT22;28534;48.100;11.584;2023-09-07T04:12:47;24.80;60.60
42885;DHT22;28534;48.100;11.584;2023-09-07T04:13:47;24.90;60.70
42885;DHT22;28534;48.100;11.584;2023-09-07T04:14:49;24.80;60.80
42885;DHT22;28534;48.100;11.584;2023-09-07T04:15:50;24.80;60.80
42885;DHT22;28534;48.100;11.584;2023-09-07T04:16:51;24.80;60.80
42885;DHT22;28534;48.100;11.584;2023-09-07T04:17:52;24.80;60.70
42885;DHT22;28534;48.100;11.584;2023-09-07T04:18:55;24.80;60.70
42885;DHT22;28534;48.100;11.584;2023-09-07T04:19:56;24.80;60.80
42885;DHT22;28534;48.100;11.584;2023-09-07T04:21:04;24.80;60.80
42885;DHT22;28534;48.100;11.584;2023-09-07T04:22:04;24.80;60.70
42885;DHT22;28534;48.100;11.584;2023-09-07T04:23:06;24.80;60.80
42885;DHT22;28534;48.100;11.584;2023-09-07T04:24:07;24.80;60.80
42885;DHT22;28534;48.100;11.584;2023-09-07T04:25:08;24.80;61.00
42885;DHT22;28534;48.100;11.584;2023-09-07T04:26:11;24.80;60.80
42885;DHT22;28534;48.100;11.584;2023-09-07T04:27:13;24.80;60.80
42885;DHT22;28534;48.100;11.584;2023-09-07T04:28:13;24.90;60.80
42885;DHT22;28534;48.100;11.584;2023-09-07T04:29:15;24.90;61.70
42885;DHT22;28534;48.100;11.584;2023-09-07T04:30:16;24.90;60.80
42885;DHT22;28534;48.100;11.584;2023-09-07T04:31:17;24.90;60.80
42885;DHT22;28534;48.100;11.584;2023-09-07T04:32:18;24.80;61.00
42885;DHT22;28534;48.100;11.584;2023-09-07T04:33:20;24.80;60.90
42885;DHT22;28534;48.100;11.584;2023-09-07T04:34:20;24.90;60.90
42885;DHT22;28534;48.100;11.584;2023-09-07T04:35:26;24.80;60.80
42885;DHT22;28534;48.100;11.584;2023-09-07T04:36:27;24.90;60.80
42885;DHT22;28534;48.100;11.584;2023-09-07T04:37:28;24.90;60.90
42885;DHT22;28534;48.100;11.584;2023-09-07T04:38:29;24.80;60.80
42885;DHT22;28534;48.100;11.584;2023-09-07T04:39:30;24.80;60.90
42885;DHT22;28534;48.100;11.584;2023-09-07T04:40:31;24.80;60.80
42885;DHT22;28534;48.100;11.584;2023-09-07T04:41:34;24.80;61.10
42885;DHT22;28534;48.100;11.584;2023-09-07T04:42:34;24.80;61.10
42885;DHT22;28534;48.100;11.584;2023-09-07T04:43:36;24.80;61.10
42885;DHT22;28534;48.100;11.584;2023-09-07T04:44:37;24.80;61.10
42885;DHT22;28534;48.100;11.584;2023-09-07T04:45:45;24.90;61.20
42885;DHT22;28534;48.100;11.584;2023-09-07T04:46:45;24.80;61.10
42885;DHT22;28534;48.100;11.584;2023-09-07T04:47:47;24.80;61.00
42885;DHT22;28534;48.100;11.584;2023-09-07T04:48:49;24.80;61.10
42885;DHT22;28534;48.100;11.584;2023-09-07T04:49:51;24.80;61.20
42885;DHT22;28534;48.100;11.584;2023-09-07T04:50:57;24.80;61.20
42885;DHT22;28534;48.100;11.584;2023-09-07T04:51:58;24.80;61.10
42885;DHT22;28534;48.100;11.584;2023-09-07T04:52:59;24.80;61.10
42885;DHT22;28534;48.100;11.584;2023-09-07T04:54:00;24.80;61.10
42885;DHT22;28534;48.100;11.584;2023-09-07T04:55:01;24.80;61.10
42885;DHT22;28534;48.100;11.584;2023-09-07T04:56:03;24.80;61.10
42885;DHT22;28534;48.100;11.584;2023-09-07T04:57:05;24.80;61.10
42885;DHT22;28534;48.100;11.584;2023-09-07T04:58:07;24.80;61.10
42885;DHT22;28534;48.100;11.584;2023-09-07T04:59:07;24.80;61.00
42885;DHT22;28534;48.100;11.584;2023-09-07T05:00:09;24.90;61.00
42885;DHT22;28534;48.100;11.584;2023-09-07T05:01:11;24.80;61.00
42885;DHT22;28534;48.100;11.584;2023-09-07T05:02:13;24.80;61.00
42885;DHT22;28534;48.100;11.584;2023-09-07T05:03:14;24.80;61.00
42885;DHT22;28534;48.100;11.584;2023-09-07T05:04:15;24.80;61.00
42885;DHT22;28534;48.100;11.584;2023-09-07T05:05:16;24.80;60.90
42885;DHT22;28534;48.100;11.584;2023-09-07T05:06:17;24.80;60.80
42885;DHT22;28534;48.100;11.584;2023-09-07T05:07:18;24.80;60.90
42885;DHT22;28534;48.100;11.584;2023-09-07T05:08:20;24.90;61.00
42885;DHT22;28534;48.100;11.584;2023-09-07T05:09:21;24.80;60.90
42885;DHT22;28534;48.100;11.584;2023-09-07T05:10:24;24.80;60.90
42885;DHT22;28534;48.100;11.584;2023-09-07T05:11:24;24.80;60.60
42885;DHT22;28534;48.100;11.584;2023-09-07T05:12:27;24.80;60.60
42885;DHT22;28534;48.100;11.584;2023-09-07T05:13:28;24.80;60.60
42885;DHT22;28534;48.100;11.584;2023-09-07T05:14:29;24.80;60.90
42885;DHT22;28534;48.100;11.584;2023-09-07T05:15:31;24.80;60.70
42885;DHT22;28534;48.100;11.584;2023-09-07T05:16:31;24.80;60.80
42885;DHT22;28534;48.100;11.584;2023-09-07T05:17:33;24.80;60.80
42885;DHT22;28534;48.100;11.584;2023-09-07T05:18:34;24.80;60.20
42885;DHT22;28534;48.100;11.584;2023-09-07T05:19:35;24.80;60.50
42885;DHT22;28534;48.100;11.584;2023-09-07T05:20:36;24.80;60.50
42885;DHT22;28534;48.100;11.584;2023-09-07T05:21:37;24.80;60.50
42885;DHT22;28534;48.100;11.584;2023-09-07T05:22:38;24.80;60.50
42885;DHT22;28534;48.100;11.584;2023-09-07T05:23:41;24.80;60.60
42885;DHT22;28534;48.100;11.584;2023-09-07T05:24:43;24.80;60.50
42885;DHT22;28534;48.100;11.584;2023-09-07T05:25:45;24.90;60.20
42885;DHT22;28534;48.100;11.584;2023-09-07T05:26:47;24.80;60.20
42885;DHT22;28534;48.100;11.584;2023-09-07T05:27:49;24.80;60.40
42885;DHT22;28534;48.100;11.584;2023-09-07T05:28:51;24.80;60.30
42885;DHT22;28534;48.100;11.584;2023-09-07T05:29:51;24.90;60.40
42885;DHT22;28534;48.100;11.584;2023-09-07T05:30:53;24.80;60.10
42885;DHT22;28534;48.100;11.584;2023-09-07T05:31:53;24.80;60.20
42885;DHT22;28534;48.100;11.584;2023-09-07T05:32:55;24.90;59.90
42885;DHT22;28534;48.100;11.584;2023-09-07T05:33:56;24.80;60.00
42885;DHT22;28534;48.100;11.584;2023-09-07T05:34:57;24.90;60.00
42885;DHT22;28534;48.100;11.584;2023-09-07T05:35:58;24.90;60.30
42885;DHT22;28534;48.100;11.584;2023-09-07T05:36:59;24.90;59.90
42885;DHT22;28534;48.100;11.584;2023-09-07T05:38:00;24.80;59.80
42885;DHT22;28534;48.100;11.584;2023-09-07T05:39:02;24.90;59.80
42885;DHT22;28534;48.100;11.584;2023-09-07T05:40:03;24.90;59.90
42885;DHT22;28534;48.100;11.584;2023-09-07T05:41:05;24.90;60.00
42885;DHT22;28534;48.100;11.584;2023-09-07T05:42:06;24.90;59.60
42885;DHT22;28534;48.100;11.584;2023-09-07T05:43:09;24.90;59.70
42885;DHT22;28534;48.100;11.584;2023-09-07T05:44:09;24.90;59.70
42885;DHT22;28534;48.100;11.584;2023-09-07T05:45:11;24.80;59.20
42885;DHT22;28534;48.100;11.584;2023-09-07T05:46:12;24.90;59.00
42885;DHT22;28534;48.100;11.584;2023-09-07T05:47:13;24.90;58.70
42885;DHT22;28534;48.100;11.584;2023-09-07T05:48:14;24.80;58.80
42885;DHT22;28534;48.100;11.584;2023-09-07T05:49:17;24.80;58.80
42885;DHT22;28534;48.100;11.584;2023-09-07T05:50:17;24.80;58.80
42885;DHT22;28534;48.100;11.584;2023-09-07T05:51:18;24.80;58.60
42885;DHT22;28534;48.100;11.584;2023-09-07T05:52:19;24.80;58.20
42885;DHT22;28534;48.100;11.584;2023-09-07T05:53:20;24.80;58.30
42885;DHT22;28534;48.100;11.584;2023-09-07T05:54:22;24.80;58.40
42885;DHT22;28534;48.100;11.584;2023-09-07T05:55:23;24.80;58.40
42885;DHT22;28534;48.100;11.584;2023-09-07T05:56:25;24.80;58.20
42885;DHT22;28534;48.100;11.584;2023-09-07T05:57:25;24.80;58.00
42885;DHT22;28534;48.100;11.584;2023-09-07T05:58:28;24.80;57.90
42885;DHT22;28534;48.100;11.584;2023-09-07T05:59:29;24.70;57.60
42885;DHT22;28534;48.100;11.584;2023-09-07T06:00:30;24.70;57.90
42885;DHT22;28534;48.100;11.584;2023-09-07T06:01:31;24.70;57.60
42885;DHT22;28534;48.100;11.584;2023-09-07T06:02:33;24.70;57.60
42885;DHT22;28534;48.100;11.584;2023-09-07T06:03:33;24.70;57.50
42885;DHT22;28534;48.100;11.584;2023-09-07T06:04:35;24.70;57.20
42885;DHT22;28534;48.100;11.584;2023-09-07T06:05:37;24.70;57.50
42885;DHT22;28534;48.100;11.584;2023-09-07T06:06:39;24.70;57.50
42885;DHT22;28534;48.100;11.584;2023-09-07T06:07:40;24.70;57.20
42885;DHT22;28534;48.100;11.584;2023-09-07T06:08:41;24.70;57.40
42885;DHT22;28534;48.100;11.584;2023-09-07T06:09:42;24.70;57.20
42885;DHT22;28534;48.100;11.584;2023-09-07T06:10:43;24.60;57.10
42885;DHT22;28534;48.100;11.584;2023-09-07T06:11:44;24.70;57.30
42885;DHT22;28534;48.100;11.584;2023-09-07T06:12:45;24.70;57.10
42885;DHT22;28534;48.100;11.584;2023-09-07T06:13:47;24.60;57.20
42885;DHT22;28534;48.100;11.584;2023-09-07T06:14:49;24.60;56.90
42885;DHT22;28534;48.100;11.584;2023-09-07T06:15:50;24.60;57.20
42885;DHT22;28534;48.100;11.584;2023-09-07T06:16:51;24.60;56.90
42885;DHT22;28534;48.100;11.584;2023-09-07T06:17:52;24.60;56.90
42885;DHT22;28534;48.100;11.584;2023-09-07T06:18:54;24.60;56.90
42885;DHT22;28534;48.100;11.584;2023-09-07T06:19:55;24.60;56.80
42885;DHT22;28534;48.100;11.584;2023-09-07T06:20:56;24.50;57.10
42885;DHT22;28534;48.100;11.584;2023-09-07T06:21:57;24.60;56.70